sensor_id;sensor_type;location;lat;lon;timestamp;P1;durP1;ratioP1;P2;durP2;ratioP2
21543;SDS011;10933;50.754;11.508;2022-08-19T00:00:27;45.58;;;33.90;;
21543;SDS011;10933;50.754;11.508;2022-08-19T00:02:53;46.25;;;34.20;;
21543;SDS011;10933;50.754;11.508;2022-08-19T00:05:20;38.40;;;32.15;;
21543;SDS011;10933;50.754;11.508;2022-08-19T00:07:47;42.05;;;32.45;;
21543;SDS011;10933;50.754;11.508;2022-08-19T00:10:15;31.08;;;27.83;;
21543;SDS011;10933;50.754;11.508;2022-08-19T00:12:42;31.13;;;28.20;;
21543;SDS011;10933;50.754;11.508;2022-08-19T00:15:11;34.58;;;30.92;;
21543;SDS011;10933;50.754;11.508;2022-08-19T00:17:41;34.10;;;29.13;;
21543;SDS011;10933;50.754;11.508;2022-08-19T00:20:09;38.03;;;31.52;;
21543;SDS011;10933;50.754;11.508;2022-08-19T00:22:41;32.30;;;29.10;;
21543;SDS011;10933;50.754;11.508;2022-08-19T00:25:09;42.03;;;30.92;;
21543;SDS011;10933;50.754;11.508;2022-08-19T00:27:36;34.50;;;30.70;;
21543;SDS011;10933;50.754;11.508;2022-08-19T00:30:03;34.83;;;31.20;;
21543;SDS011;10933;50.754;11.508;2022-08-19T00:32:33;34.92;;;30.70;;
21543;SDS011;10933;50.754;11.508;2022-08-19T00:35:00;41.03;;;32.90;;
21543;SDS011;10933;50.754;11.508;2022-08-19T00:37:27;37.33;;;32.78;;
21543;SDS011;10933;50.754;11.508;2022-08-19T00:39:53;37.17;;;33.22;;
21543;SDS011;10933;50.754;11.508;2022-08-19T00:42:20;39.80;;;33.50;;
21543;SDS011;10933;50.754;11.508;2022-08-19T00:44:47;36.70;;;31.45;;
21543;SDS011;10933;50.754;11.508;2022-08-19T00:47:15;43.97;;;32.53;;
21543;SDS011;10933;50.754;11.508;2022-08-19T00:49:45;42.42;;;32.22;;
21543;SDS011;10933;50.754;11.508;2022-08-19T00:52:22;57.05;;;36.67;;
21543;SDS011;10933;50.754;11.508;2022-08-19T00:54:54;49.50;;;37.05;;
21543;SDS011;10933;50.754;11.508;2022-08-19T00:57:24;45.80;;;34.17;;
21543;SDS011;10933;50.754;11.508;2022-08-19T00:59:55;55.42;;;35.35;;
21543;SDS011;10933;50.754;11.508;2022-08-19T01:02:23;53.55;;;37.28;;
21543;SDS011;10933;50.754;11.508;2022-08-19T01:04:50;75.95;;;47.58;;
21543;SDS011;10933;50.754;11.508;2022-08-19T01:07:16;50.13;;;34.75;;
21543;SDS011;10933;50.754;11.508;2022-08-19T01:09:43;42.55;;;33.10;;
21543;SDS011;10933;50.754;11.508;2022-08-19T01:12:09;47.95;;;34.42;;
21543;SDS011;10933;50.754;11.508;2022-08-19T01:14:36;44.15;;;33.88;;
21543;SDS011;10933;50.754;11.508;2022-08-19T01:17:05;48.15;;;33.42;;
21543;SDS011;10933;50.754;11.508;2022-08-19T01:19:36;41.50;;;33.88;;
21543;SDS011;10933;50.754;11.508;2022-08-19T01:22:10;47.00;;;34.67;;
21543;SDS011;10933;50.754;11.508;2022-08-19T01:24:44;45.97;;;33.60;;
21543;SDS011;10933;50.754;11.508;2022-08-19T01:27:13;46.53;;;34.83;;
21543;SDS011;10933;50.754;11.508;2022-08-19T01:29:40;50.05;;;35.53;;
21543;SDS011;10933;50.754;11.508;2022-08-19T01:32:07;46.33;;;34.80;;
21543;SDS011;10933;50.754;11.508;2022-08-19T01:34:37;52.47;;;37.00;;
21543;SDS011;10933;50.754;11.508;2022-08-19T01:37:07;53.03;;;36.33;;
21543;SDS011;10933;50.754;11.508;2022-08-19T01:39:37;51.30;;;36.75;;
21543;SDS011;10933;50.754;11.508;2022-08-19T01:42:04;55.03;;;37.58;;
21543;SDS011;10933;50.754;11.508;2022-08-19T01:44:35;59.78;;;38.47;;
21543;SDS011;10933;50.754;11.508;2022-08-19T01:47:03;60.65;;;40.10;;
21543;SDS011;10933;50.754;11.508;2022-08-19T01:49:29;64.22;;;40.00;;
21543;SDS011;10933;50.754;11.508;2022-08-19T01:51:56;60.47;;;38.10;;
21543;SDS011;10933;50.754;11.508;2022-08-19T01:54:24;58.35;;;38.63;;
21543;SDS011;10933;50.754;11.508;2022-08-19T01:56:51;65.03;;;39.55;;
21543;SDS011;10933;50.754;11.508;2022-08-19T01:59:39;55.78;;;37.17;;
21543;SDS011;10933;50.754;11.508;2022-08-19T02:02:07;59.22;;;40.30;;
21543;SDS011;10933;50.754;11.508;2022-08-19T02:04:33;64.30;;;39.88;;
21543;SDS011;10933;50.754;11.508;2022-08-19T02:07:02;61.67;;;38.97;;
21543;SDS011;10933;50.754;11.508;2022-08-19T02:09:30;56.08;;;37.55;;
21543;SDS011;10933;50.754;11.508;2022-08-19T02:11:57;53.88;;;36.15;;
21543;SDS011;10933;50.754;11.508;2022-08-19T02:14:23;64.15;;;40.22;;
21543;SDS011;10933;50.754;11.508;2022-08-19T02:16:49;58.90;;;39.00;;
21543;SDS011;10933;50.754;11.508;2022-08-19T02:19:16;51.45;;;35.25;;
21543;SDS011;10933;50.754;11.508;2022-08-19T02:21:42;49.45;;;34.72;;
21543;SDS011;10933;50.754;11.508;2022-08-19T02:24:08;53.35;;;36.97;;
21543;SDS011;10933;50.754;11.508;2022-08-19T02:26:35;54.45;;;36.85;;
21543;SDS011;10933;50.754;11.508;2022-08-19T02:29:01;47.35;;;35.10;;
21543;SDS011;10933;50.754;11.508;2022-08-19T02:31:27;45.63;;;34.08;;
21543;SDS011;10933;50.754;11.508;2022-08-19T02:33:54;35.35;;;30.35;;
21543;SDS011;10933;50.754;11.508;2022-08-19T02:36:21;36.40;;;31.40;;
21543;SDS011;10933;50.754;11.508;2022-08-19T02:38:49;36.05;;;31.70;;
21543;SDS011;10933;50.754;11.508;2022-08-19T02:41:25;42.28;;;34.53;;
21543;SDS011;10933;50.754;11.508;2022-08-19T02:43:57;36.53;;;30.02;;
21543;SDS011;10933;50.754;11.508;2022-08-19T02:46:27;36.47;;;29.17;;
21543;SDS011;10933;50.754;11.508;2022-08-19T02:48:57;32.17;;;29.10;;
21543;SDS011;10933;50.754;11.508;2022-08-19T02:51:33;30.95;;;27.77;;
21543;SDS011;10933;50.754;11.508;2022-08-19T02:54:02;34.33;;;29.02;;
21543;SDS011;10933;50.754;11.508;2022-08-19T02:56:29;32.20;;;28.60;;
21543;SDS011;10933;50.754;11.508;2022-08-19T02:58:59;30.88;;;27.75;;
21543;SDS011;10933;50.754;11.508;2022-08-19T03:01:27;30.42;;;27.42;;
21543;SDS011;10933;50.754;11.508;2022-08-19T03:03:56;29.67;;;27.00;;
21543;SDS011;10933;50.754;11.508;2022-08-19T03:06:24;30.65;;;27.58;;
21543;SDS011;10933;50.754;11.508;2022-08-19T03:08:51;28.38;;;25.65;;
21543;SDS011;10933;50.754;11.508;2022-08-19T03:12:00;27.40;;;24.98;;
21543;SDS011;10933;50.754;11.508;2022-08-19T03:14:08;27.55;;;24.95;;
21543;SDS011;10933;50.754;11.508;2022-08-19T03:16:39;25.95;;;23.75;;
21543;SDS011;10933;50.754;11.508;2022-08-19T03:19:07;26.38;;;24.23;;
21543;SDS011;10933;50.754;11.508;2022-08-19T03:21:34;26.63;;;24.58;;
21543;SDS011;10933;50.754;11.508;2022-08-19T03:24:01;27.25;;;25.05;;
21543;SDS011;10933;50.754;11.508;2022-08-19T03:26:30;27.30;;;24.90;;
21543;SDS011;10933;50.754;11.508;2022-08-19T03:29:01;26.48;;;24.55;;
21543;SDS011;10933;50.754;11.508;2022-08-19T03:31:32;26.95;;;24.95;;
21543;SDS011;10933;50.754;11.508;2022-08-19T03:33:58;28.90;;;26.33;;
21543;SDS011;10933;50.754;11.508;2022-08-19T03:36:25;25.17;;;23.10;;
21543;SDS011;10933;50.754;11.508;2022-08-19T03:38:53;24.38;;;22.80;;
21543;SDS011;10933;50.754;11.508;2022-08-19T03:41:23;26.52;;;24.15;;
21543;SDS011;10933;50.754;11.508;2022-08-19T03:43:52;26.67;;;24.55;;
21543;SDS011;10933;50.754;11.508;2022-08-19T03:46:23;27.58;;;24.75;;
21543;SDS011;10933;50.754;11.508;2022-08-19T03:48:53;26.40;;;24.40;;
21543;SDS011;10933;50.754;11.508;2022-08-19T03:51:25;26.85;;;24.58;;
21543;SDS011;10933;50.754;11.508;2022-08-19T03:53:54;26.58;;;24.33;;
21543;SDS011;10933;50.754;11.508;2022-08-19T03:56:20;27.13;;;24.85;;
21543;SDS011;10933;50.754;11.508;2022-08-19T03:58:47;27.92;;;25.13;;
21543;SDS011;10933;50.754;11.508;2022-08-19T04:01:15;27.77;;;25.25;;
21543;SDS011;10933;50.754;11.508;2022-08-19T04:03:44;32.88;;;27.02;;
21543;SDS011;10933;50.754;11.508;2022-08-19T04:06:18;27.80;;;25.30;;
21543;SDS011;10933;50.754;11.508;2022-08-19T04:08:48;25.92;;;23.73;;
21543;SDS011;10933;50.754;11.508;2022-08-19T04:11:18;26.65;;;24.45;;
21543;SDS011;10933;50.754;11.508;2022-08-19T04:13:48;26.30;;;24.02;;
21543;SDS011;10933;50.754;11.508;2022-08-19T04:16:17;28.23;;;25.55;;
21543;SDS011;10933;50.754;11.508;2022-08-19T04:18:47;26.42;;;24.20;;
21543;SDS011;10933;50.754;11.508;2022-08-19T04:21:18;26.13;;;23.98;;
21543;SDS011;10933;50.754;11.508;2022-08-19T04:23:52;27.13;;;24.65;;
21543;SDS011;10933;50.754;11.508;2022-08-19T04:26:21;27.70;;;25.35;;
21543;SDS011;10933;50.754;11.508;2022-08-19T04:28:49;27.33;;;24.95;;
21543;SDS011;10933;50.754;11.508;2022-08-19T04:31:17;27.40;;;25.00;;
21543;SDS011;10933;50.754;11.508;2022-08-19T04:33:45;28.48;;;25.63;;
21543;SDS011;10933;50.754;11.508;2022-08-19T04:36:15;28.77;;;25.92;;
21543;SDS011;10933;50.754;11.508;2022-08-19T04:38:45;27.98;;;25.65;;
21543;SDS011;10933;50.754;11.508;2022-08-19T04:41:12;28.42;;;25.77;;
21543;SDS011;10933;50.754;11.508;2022-08-19T04:43:57;29.42;;;26.10;;
21543;SDS011;10933;50.754;11.508;2022-08-19T04:46:23;27.88;;;25.55;;
21543;SDS011;10933;50.754;11.508;2022-08-19T04:48:49;28.05;;;25.23;;
21543;SDS011;10933;50.754;11.508;2022-08-19T04:51:15;28.52;;;26.05;;
21543;SDS011;10933;50.754;11.508;2022-08-19T04:53:42;27.98;;;25.73;;
21543;SDS011;10933;50.754;11.508;2022-08-19T04:56:15;27.83;;;25.27;;
21543;SDS011;10933;50.754;11.508;2022-08-19T04:58:42;27.65;;;24.88;;
21543;SDS011;10933;50.754;11.508;2022-08-19T05:01:13;27.40;;;25.27;;
21543;SDS011;10933;50.754;11.508;2022-08-19T05:03:42;27.30;;;24.85;;
21543;SDS011;10933;50.754;11.508;2022-08-19T05:06:10;28.08;;;25.17;;
21543;SDS011;10933;50.754;11.508;2022-08-19T05:08:39;28.85;;;26.08;;
21543;SDS011;10933;50.754;11.508;2022-08-19T05:11:22;27.80;;;25.80;;
21543;SDS011;10933;50.754;11.508;2022-08-19T05:13:51;27.85;;;25.15;;
21543;SDS011;10933;50.754;11.508;2022-08-19T05:16:18;26.65;;;24.58;;
21543;SDS011;10933;50.754;11.508;2022-08-19T05:18:46;27.83;;;25.27;;
21543;SDS011;10933;50.754;11.508;2022-08-19T05:21:31;27.48;;;24.50;;
21543;SDS011;10933;50.754;11.508;2022-08-19T05:24:19;26.33;;;24.65;;
21543;SDS011;10933;50.754;11.508;2022-08-19T05:26:47;25.92;;;23.98;;
21543;SDS011;10933;50.754;11.508;2022-08-19T05:29:15;26.88;;;24.70;;
21543;SDS011;10933;50.754;11.508;2022-08-19T05:31:44;27.33;;;24.88;;
21543;SDS011;10933;50.754;11.508;2022-08-19T05:34:14;32.95;;;27.90;;
21543;SDS011;10933;50.754;11.508;2022-08-19T05:36:42;26.70;;;24.48;;
21543;SDS011;10933;50.754;11.508;2022-08-19T05:39:11;27.25;;;24.80;;
21543;SDS011;10933;50.754;11.508;2022-08-19T05:41:42;26.42;;;24.25;;
21543;SDS011;10933;50.754;11.508;2022-08-19T05:44:09;28.42;;;25.70;;
21543;SDS011;10933;50.754;11.508;2022-08-19T05:46:36;30.02;;;26.90;;
21543;SDS011;10933;50.754;11.508;2022-08-19T05:49:06;28.00;;;25.15;;
21543;SDS011;10933;50.754;11.508;2022-08-19T05:51:33;28.02;;;25.95;;
21543;SDS011;10933;50.754;11.508;2022-08-19T05:54:01;27.92;;;25.55;;
21543;SDS011;10933;50.754;11.508;2022-08-19T05:56:28;28.50;;;25.88;;
21543;SDS011;10933;50.754;11.508;2022-08-19T05:58:55;27.52;;;25.25;;
21543;SDS011;10933;50.754;11.508;2022-08-19T06:01:24;28.33;;;25.85;;
21543;SDS011;10933;50.754;11.508;2022-08-19T06:03:51;29.83;;;26.92;;
21543;SDS011;10933;50.754;11.508;2022-08-19T06:06:18;32.47;;;27.33;;
21543;SDS011;10933;50.754;11.508;2022-08-19T06:08:45;31.25;;;26.15;;
21543;SDS011;10933;50.754;11.508;2022-08-19T06:13:41;30.35;;;27.48;;
21543;SDS011;10933;50.754;11.508;2022-08-19T06:16:08;30.85;;;27.85;;
21543;SDS011;10933;50.754;11.508;2022-08-19T06:18:34;29.20;;;26.77;;
21543;SDS011;10933;50.754;11.508;2022-08-19T06:21:00;29.50;;;26.88;;
21543;SDS011;10933;50.754;11.508;2022-08-19T06:23:29;28.95;;;26.33;;
21543;SDS011;10933;50.754;11.508;2022-08-19T06:25:55;29.92;;;26.58;;
21543;SDS011;10933;50.754;11.508;2022-08-19T06:28:22;27.23;;;24.95;;
21543;SDS011;10933;50.754;11.508;2022-08-19T06:30:48;27.80;;;25.45;;
21543;SDS011;10933;50.754;11.508;2022-08-19T06:33:16;27.77;;;25.25;;
21543;SDS011;10933;50.754;11.508;2022-08-19T06:35:42;27.73;;;25.42;;
21543;SDS011;10933;50.754;11.508;2022-08-19T06:38:08;27.73;;;25.50;;
21543;SDS011;10933;50.754;11.508;2022-08-19T06:40:35;28.52;;;26.23;;
21543;SDS011;10933;50.754;11.508;2022-08-19T06:43:03;30.92;;;27.90;;
21543;SDS011;10933;50.754;11.508;2022-08-19T06:45:29;33.40;;;27.52;;
21543;SDS011;10933;50.754;11.508;2022-08-19T06:47:55;29.75;;;26.80;;
21543;SDS011;10933;50.754;11.508;2022-08-19T06:50:24;29.90;;;27.35;;
21543;SDS011;10933;50.754;11.508;2022-08-19T06:52:50;33.95;;;28.48;;
21543;SDS011;10933;50.754;11.508;2022-08-19T06:55:17;30.23;;;27.63;;
21543;SDS011;10933;50.754;11.508;2022-08-19T06:57:43;35.22;;;27.17;;
21543;SDS011;10933;50.754;11.508;2022-08-19T07:00:11;32.42;;;29.13;;
21543;SDS011;10933;50.754;11.508;2022-08-19T07:02:40;30.02;;;26.83;;
21543;SDS011;10933;50.754;11.508;2022-08-19T07:05:07;32.88;;;27.42;;
21543;SDS011;10933;50.754;11.508;2022-08-19T07:07:33;31.05;;;27.73;;
21543;SDS011;10933;50.754;11.508;2022-08-19T07:09:59;31.25;;;28.05;;
21543;SDS011;10933;50.754;11.508;2022-08-19T07:12:29;30.50;;;27.30;;
21543;SDS011;10933;50.754;11.508;2022-08-19T07:14:59;32.28;;;28.90;;
21543;SDS011;10933;50.754;11.508;2022-08-19T07:17:26;32.72;;;28.55;;
21543;SDS011;10933;50.754;11.508;2022-08-19T07:19:52;30.20;;;26.52;;
21543;SDS011;10933;50.754;11.508;2022-08-19T07:22:20;31.75;;;28.48;;
21543;SDS011;10933;50.754;11.508;2022-08-19T07:24:47;29.67;;;26.98;;
21543;SDS011;10933;50.754;11.508;2022-08-19T07:27:14;29.52;;;26.45;;
21543;SDS011;10933;50.754;11.508;2022-08-19T07:29:40;31.70;;;28.38;;
21543;SDS011;10933;50.754;11.508;2022-08-19T07:32:07;30.58;;;27.58;;
21543;SDS011;10933;50.754;11.508;2022-08-19T07:34:34;31.60;;;28.45;;
21543;SDS011;10933;50.754;11.508;2022-08-19T07:37:03;33.53;;;28.85;;
21543;SDS011;10933;50.754;11.508;2022-08-19T07:39:31;42.10;;;32.83;;
21543;SDS011;10933;50.754;11.508;2022-08-19T07:42:00;32.25;;;28.98;;
21543;SDS011;10933;50.754;11.508;2022-08-19T07:44:28;30.92;;;27.83;;
21543;SDS011;10933;50.754;11.508;2022-08-19T07:46:56;64.28;;;47.65;;
21543;SDS011;10933;50.754;11.508;2022-08-19T07:49:22;36.03;;;32.10;;
21543;SDS011;10933;50.754;11.508;2022-08-19T07:51:50;33.10;;;29.05;;
21543;SDS011;10933;50.754;11.508;2022-08-19T07:54:20;35.40;;;30.58;;
21543;SDS011;10933;50.754;11.508;2022-08-19T07:56:48;37.05;;;31.27;;
21543;SDS011;10933;50.754;11.508;2022-08-19T07:59:15;36.35;;;32.03;;
21543;SDS011;10933;50.754;11.508;2022-08-19T08:01:43;35.30;;;30.85;;
21543;SDS011;10933;50.754;11.508;2022-08-19T08:04:09;36.38;;;31.65;;
21543;SDS011;10933;50.754;11.508;2022-08-19T08:06:54;35.17;;;31.40;;
21543;SDS011;10933;50.754;11.508;2022-08-19T08:09:40;34.67;;;30.52;;
21543;SDS011;10933;50.754;11.508;2022-08-19T08:12:19;34.42;;;31.08;;
21543;SDS011;10933;50.754;11.508;2022-08-19T08:14:50;34.15;;;30.70;;
21543;SDS011;10933;50.754;11.508;2022-08-19T08:17:20;45.85;;;32.28;;
21543;SDS011;10933;50.754;11.508;2022-08-19T08:19:47;40.22;;;32.25;;
21543;SDS011;10933;50.754;11.508;2022-08-19T08:22:16;33.92;;;30.23;;
21543;SDS011;10933;50.754;11.508;2022-08-19T08:25:06;34.83;;;31.08;;
21543;SDS011;10933;50.754;11.508;2022-08-19T08:27:42;41.20;;;31.10;;
21543;SDS011;10933;50.754;11.508;2022-08-19T08:30:10;39.75;;;31.13;;
21543;SDS011;10933;50.754;11.508;2022-08-19T08:32:39;42.60;;;32.20;;
21543;SDS011;10933;50.754;11.508;2022-08-19T08:35:07;43.85;;;33.53;;
21543;SDS011;10933;50.754;11.508;2022-08-19T08:37:35;48.30;;;34.80;;
21543;SDS011;10933;50.754;11.508;2022-08-19T08:40:45;44.03;;;35.33;;
21543;SDS011;10933;50.754;11.508;2022-08-19T08:45:30;43.72;;;34.58;;
21543;SDS011;10933;50.754;11.508;2022-08-19T08:48:02;40.63;;;34.53;;
21543;SDS011;10933;50.754;11.508;2022-08-19T08:50:40;45.97;;;34.55;;
21543;SDS011;10933;50.754;11.508;2022-08-19T08:53:10;41.63;;;32.95;;
21543;SDS011;10933;50.754;11.508;2022-08-19T08:55:42;42.95;;;34.15;;
21543;SDS011;10933;50.754;11.508;2022-08-19T08:58:12;47.97;;;34.70;;
21543;SDS011;10933;50.754;11.508;2022-08-19T09:01:06;41.45;;;34.00;;
21543;SDS011;10933;50.754;11.508;2022-08-19T09:03:36;46.20;;;34.50;;
21543;SDS011;10933;50.754;11.508;2022-08-19T09:06:10;46.17;;;34.28;;
21543;SDS011;10933;50.754;11.508;2022-08-19T09:14:18;37.78;;;32.42;;
21543;SDS011;10933;50.754;11.508;2022-08-19T09:17:03;37.45;;;30.33;;
21543;SDS011;10933;50.754;11.508;2022-08-19T09:19:33;32.78;;;29.25;;
21543;SDS011;10933;50.754;11.508;2022-08-19T09:22:01;31.25;;;28.10;;
21543;SDS011;10933;50.754;11.508;2022-08-19T09:24:27;31.85;;;28.48;;
21543;SDS011;10933;50.754;11.508;2022-08-19T09:26:54;29.23;;;26.77;;
21543;SDS011;10933;50.754;11.508;2022-08-19T09:29:20;30.55;;;27.30;;
21543;SDS011;10933;50.754;11.508;2022-08-19T09:31:46;26.30;;;23.95;;
21543;SDS011;10933;50.754;11.508;2022-08-19T09:34:12;26.92;;;24.38;;
21543;SDS011;10933;50.754;11.508;2022-08-19T09:36:39;25.38;;;23.52;;
21543;SDS011;10933;50.754;11.508;2022-08-19T09:39:06;25.63;;;23.30;;
21543;SDS011;10933;50.754;11.508;2022-08-19T09:41:32;27.10;;;24.27;;
21543;SDS011;10933;50.754;11.508;2022-08-19T09:43:58;25.10;;;22.65;;
21543;SDS011;10933;50.754;11.508;2022-08-19T09:46:26;23.15;;;20.92;;
21543;SDS011;10933;50.754;11.508;2022-08-19T09:48:54;22.42;;;20.45;;
21543;SDS011;10933;50.754;11.508;2022-08-19T09:51:24;22.48;;;20.60;;
21543;SDS011;10933;50.754;11.508;2022-08-19T09:53:53;20.17;;;18.45;;
21543;SDS011;10933;50.754;11.508;2022-08-19T09:56:24;17.33;;;16.35;;
21543;SDS011;10933;50.754;11.508;2022-08-19T09:58:50;16.35;;;15.23;;
21543;SDS011;10933;50.754;11.508;2022-08-19T10:01:21;14.35;;;13.65;;
21543;SDS011;10933;50.754;11.508;2022-08-19T10:03:50;13.77;;;12.88;;
21543;SDS011;10933;50.754;11.508;2022-08-19T10:06:19;12.75;;;11.95;;
21543;SDS011;10933;50.754;11.508;2022-08-19T10:08:46;12.70;;;11.90;;
21543;SDS011;10933;50.754;11.508;2022-08-19T10:11:14;11.95;;;11.25;;
21543;SDS011;10933;50.754;11.508;2022-08-19T10:13:42;13.00;;;12.15;;
21543;SDS011;10933;50.754;11.508;2022-08-19T10:16:10;11.98;;;11.27;;
21543;SDS011;10933;50.754;11.508;2022-08-19T10:18:38;11.75;;;10.93;;
21543;SDS011;10933;50.754;11.508;2022-08-19T10:21:13;16.38;;;10.73;;
21543;SDS011;10933;50.754;11.508;2022-08-19T10:23:42;11.20;;;10.60;;
21543;SDS011;10933;50.754;11.508;2022-08-19T10:26:11;11.45;;;10.75;;
21543;SDS011;10933;50.754;11.508;2022-08-19T10:28:39;11.63;;;10.63;;
21543;SDS011;10933;50.754;11.508;2022-08-19T10:31:07;13.02;;;10.48;;
21543;SDS011;10933;50.754;11.508;2022-08-19T10:33:40;10.60;;;9.95;;
21543;SDS011;10933;50.754;11.508;2022-08-19T10:36:08;11.13;;;10.52;;
21543;SDS011;10933;50.754;11.508;2022-08-19T10:38:37;9.45;;;8.95;;
21543;SDS011;10933;50.754;11.508;2022-08-19T10:41:10;10.98;;;10.18;;
21543;SDS011;10933;50.754;11.508;2022-08-19T10:43:44;10.65;;;9.75;;
21543;SDS011;10933;50.754;11.508;2022-08-19T10:46:12;11.13;;;10.07;;
21543;SDS011;10933;50.754;11.508;2022-08-19T10:48:40;10.07;;;9.57;;
21543;SDS011;10933;50.754;11.508;2022-08-19T10:51:07;11.02;;;9.98;;
21543;SDS011;10933;50.754;11.508;2022-08-19T10:53:53;11.98;;;10.93;;
21543;SDS011;10933;50.754;11.508;2022-08-19T10:56:20;10.38;;;9.85;;
21543;SDS011;10933;50.754;11.508;2022-08-19T10:59:07;10.30;;;9.68;;
21543;SDS011;10933;50.754;11.508;2022-08-19T11:01:34;10.77;;;10.20;;
21543;SDS011;10933;50.754;11.508;2022-08-19T11:04:01;9.68;;;9.18;;
21543;SDS011;10933;50.754;11.508;2022-08-19T11:06:29;10.27;;;9.32;;
21543;SDS011;10933;50.754;11.508;2022-08-19T11:08:57;9.35;;;8.90;;
21543;SDS011;10933;50.754;11.508;2022-08-19T11:11:25;10.32;;;9.63;;
21543;SDS011;10933;50.754;11.508;2022-08-19T11:13:51;11.27;;;10.68;;
21543;SDS011;10933;50.754;11.508;2022-08-19T11:16:22;11.90;;;11.02;;
21543;SDS011;10933;50.754;11.508;2022-08-19T11:18:53;10.13;;;9.57;;
21543;SDS011;10933;50.754;11.508;2022-08-19T11:23:51;9.77;;;9.27;;
21543;SDS011;10933;50.754;11.508;2022-08-19T11:26:23;10.48;;;9.63;;
21543;SDS011;10933;50.754;11.508;2022-08-19T11:28:50;9.85;;;9.15;;
21543;SDS011;10933;50.754;11.508;2022-08-19T11:31:20;9.70;;;8.88;;
21543;SDS011;10933;50.754;11.508;2022-08-19T11:33:51;8.82;;;8.25;;
21543;SDS011;10933;50.754;11.508;2022-08-19T11:36:19;8.70;;;8.27;;
21543;SDS011;10933;50.754;11.508;2022-08-19T11:38:47;8.57;;;7.97;;
21543;SDS011;10933;50.754;11.508;2022-08-19T11:41:14;8.88;;;8.27;;
21543;SDS011;10933;50.754;11.508;2022-08-19T11:43:42;9.77;;;8.68;;
21543;SDS011;10933;50.754;11.508;2022-08-19T11:46:09;10.05;;;9.35;;
21543;SDS011;10933;50.754;11.508;2022-08-19T11:48:37;8.60;;;8.20;;
21543;SDS011;10933;50.754;11.508;2022-08-19T11:51:04;9.02;;;8.52;;
21543;SDS011;10933;50.754;11.508;2022-08-19T11:53:33;8.77;;;7.25;;
21543;SDS011;10933;50.754;11.508;2022-08-19T11:56:01;7.40;;;6.70;;
21543;SDS011;10933;50.754;11.508;2022-08-19T11:58:28;7.20;;;6.53;;
21543;SDS011;10933;50.754;11.508;2022-08-19T12:00:54;5.82;;;5.53;;
21543;SDS011;10933;50.754;11.508;2022-08-19T12:03:21;5.20;;;4.93;;
21543;SDS011;10933;50.754;11.508;2022-08-19T12:05:48;5.57;;;5.28;;
21543;SDS011;10933;50.754;11.508;2022-08-19T12:08:14;5.63;;;5.03;;
21543;SDS011;10933;50.754;11.508;2022-08-19T12:10:42;5.18;;;4.95;;
21543;SDS011;10933;50.754;11.508;2022-08-19T12:13:10;5.40;;;5.10;;
21543;SDS011;10933;50.754;11.508;2022-08-19T12:15:40;10.68;;;6.00;;
21543;SDS011;10933;50.754;11.508;2022-08-19T12:18:08;5.88;;;5.57;;
21543;SDS011;10933;50.754;11.508;2022-08-19T12:20:38;5.97;;;5.68;;
21543;SDS011;10933;50.754;11.508;2022-08-19T12:23:06;5.43;;;5.13;;
21543;SDS011;10933;50.754;11.508;2022-08-19T12:25:34;6.47;;;5.97;;
21543;SDS011;10933;50.754;11.508;2022-08-19T12:28:01;5.90;;;5.50;;
21543;SDS011;10933;50.754;11.508;2022-08-19T12:30:27;6.13;;;5.72;;
21543;SDS011;10933;50.754;11.508;2022-08-19T12:32:53;8.93;;;6.20;;
21543;SDS011;10933;50.754;11.508;2022-08-19T12:35:20;6.10;;;5.70;;
21543;SDS011;10933;50.754;11.508;2022-08-19T12:37:47;6.65;;;6.15;;
21543;SDS011;10933;50.754;11.508;2022-08-19T12:40:15;6.22;;;5.72;;
21543;SDS011;10933;50.754;11.508;2022-08-19T12:42:43;5.68;;;5.32;;
21543;SDS011;10933;50.754;11.508;2022-08-19T12:45:10;5.72;;;5.43;;
21543;SDS011;10933;50.754;11.508;2022-08-19T12:47:37;5.47;;;5.18;;
21543;SDS011;10933;50.754;11.508;2022-08-19T12:50:04;6.28;;;5.78;;
21543;SDS011;10933;50.754;11.508;2022-08-19T12:52:34;4.95;;;4.65;;
21543;SDS011;10933;50.754;11.508;2022-08-19T12:55:06;5.28;;;4.75;;
21543;SDS011;10933;50.754;11.508;2022-08-19T12:57:33;5.07;;;4.78;;
21543;SDS011;10933;50.754;11.508;2022-08-19T13:00:21;5.22;;;4.93;;
21543;SDS011;10933;50.754;11.508;2022-08-19T13:02:47;5.43;;;5.13;;
21543;SDS011;10933;50.754;11.508;2022-08-19T13:05:17;5.88;;;5.47;;
21543;SDS011;10933;50.754;11.508;2022-08-19T13:07:46;5.68;;;5.40;;
21543;SDS011;10933;50.754;11.508;2022-08-19T13:10:13;6.40;;;6.00;;
21543;SDS011;10933;50.754;11.508;2022-08-19T13:12:43;6.90;;;6.50;;
21543;SDS011;10933;50.754;11.508;2022-08-19T13:15:10;7.03;;;6.53;;
21543;SDS011;10933;50.754;11.508;2022-08-19T13:17:38;10.30;;;6.47;;
21543;SDS011;10933;50.754;11.508;2022-08-19T13:20:05;6.90;;;6.50;;
21543;SDS011;10933;50.754;11.508;2022-08-19T13:22:35;7.60;;;7.20;;
21543;SDS011;10933;50.754;11.508;2022-08-19T13:25:03;7.50;;;7.00;;
21543;SDS011;10933;50.754;11.508;2022-08-19T13:27:31;7.55;;;7.07;;
21543;SDS011;10933;50.754;11.508;2022-08-19T13:29:57;8.30;;;7.78;;
21543;SDS011;10933;50.754;11.508;2022-08-19T13:32:42;8.65;;;8.15;;
21543;SDS011;10933;50.754;11.508;2022-08-19T13:35:27;8.50;;;8.00;;
21543;SDS011;10933;50.754;11.508;2022-08-19T13:37:53;8.10;;;7.68;;
21543;SDS011;10933;50.754;11.508;2022-08-19T13:40:22;9.02;;;8.43;;
21543;SDS011;10933;50.754;11.508;2022-08-19T13:42:52;8.20;;;7.78;;
21543;SDS011;10933;50.754;11.508;2022-08-19T13:45:20;9.27;;;8.52;;
21543;SDS011;10933;50.754;11.508;2022-08-19T13:47:49;8.80;;;8.30;;
21543;SDS011;10933;50.754;11.508;2022-08-19T13:50:20;9.52;;;8.82;;
21543;SDS011;10933;50.754;11.508;2022-08-19T13:52:50;8.43;;;7.88;;
21543;SDS011;10933;50.754;11.508;2022-08-19T13:55:17;9.98;;;9.20;;
21543;SDS011;10933;50.754;11.508;2022-08-19T13:57:44;10.23;;;9.73;;
21543;SDS011;10933;50.754;11.508;2022-08-19T14:00:15;10.25;;;9.30;;
21543;SDS011;10933;50.754;11.508;2022-08-19T14:02:43;11.35;;;10.55;;
21543;SDS011;10933;50.754;11.508;2022-08-19T14:05:12;10.35;;;9.82;;
21543;SDS011;10933;50.754;11.508;2022-08-19T14:07:39;11.00;;;10.30;;
21543;SDS011;10933;50.754;11.508;2022-08-19T14:10:07;10.63;;;10.00;;
21543;SDS011;10933;50.754;11.508;2022-08-19T14:12:36;11.15;;;10.55;;
21543;SDS011;10933;50.754;11.508;2022-08-19T14:15:03;10.23;;;9.82;;
21543;SDS011;10933;50.754;11.508;2022-08-19T14:17:30;10.88;;;9.90;;
21543;SDS011;10933;50.754;11.508;2022-08-19T14:20:05;10.98;;;10.38;;
21543;SDS011;10933;50.754;11.508;2022-08-19T14:22:34;10.70;;;9.63;;
21543;SDS011;10933;50.754;11.508;2022-08-19T14:25:01;11.43;;;10.55;;
21543;SDS011;10933;50.754;11.508;2022-08-19T14:27:39;11.10;;;10.38;;
21543;SDS011;10933;50.754;11.508;2022-08-19T14:30:07;10.73;;;10.18;;
21543;SDS011;10933;50.754;11.508;2022-08-19T14:32:35;10.00;;;9.50;;
21543;SDS011;10933;50.754;11.508;2022-08-19T14:35:02;10.80;;;10.20;;
21543;SDS011;10933;50.754;11.508;2022-08-19T14:37:29;11.18;;;10.57;;